Time;durP1;ratioP1;P1;durP2;ratioP2;P2;SDS_P1;SDS_P2;PMS_P1;PMS_P2;Temp;Humidity;BMP_temperature;BMP_pressure;BME280_temperature;BME280_humidity;BME280_pressure;Samples;Min_cycle;Max_cycle;Signal;HPM_P1;HPM_P2
2021/10/29 00:01:01;;;;;;;31.80;18.10;;;;;;;7.50;nan;101687.94;5084840;28;20035;-57
2021/10/29 00:03:26;;;;;;;29.55;18.05;;;;;;;7.46;nan;101684.06;5085512;28;20106;-57
2021/10/29 00:05:52;;;;;;;26.50;16.58;;;;;;;7.48;nan;101674.81;5088426;28;20520;-57
2021/10/29 00:08:17;;;;;;;29.38;18.08;;;;;;;7.45;nan;101677.09;5085641;28;20131;-57
2021/10/29 00:10:43;;;;;;;26.08;16.45;;;;;;;7.44;nan;101675.44;5086137;28;20382;-57
2021/10/29 00:13:09;;;;;;;27.15;17.52;;;;;;;7.36;nan;101668.47;5085969;28;20035;-57
2021/10/29 00:15:35;;;;;;;31.88;18.92;;;;;;;7.31;nan;101678.09;5084948;28;20090;-56
2021/10/29 00:18:01;;;;;;;32.20;19.33;;;;;;;7.33;nan;101673.38;5084096;28;20027;-56
2021/10/29 00:20:27;;;;;;;29.75;17.95;;;;;;;7.28;nan;101674.00;5082813;28;20103;-57
2021/10/29 00:22:53;;;;;;;30.25;18.75;;;;;;;7.29;nan;101667.63;5084964;28;20032;-55
2021/10/29 00:25:19;;;;;;;31.75;18.38;;;;;;;7.27;nan;101665.16;5065831;28;20099;-57
2021/10/29 00:27:45;;;;;;;29.67;17.92;;;;;;;7.23;nan;101660.47;5084429;28;20042;-57
2021/10/29 00:30:11;;;;;;;29.30;17.75;;;;;;;7.22;nan;101664.16;5086699;28;20020;-57
2021/10/29 00:32:37;;;;;;;28.15;17.80;;;;;;;7.18;nan;101660.22;5085587;28;20092;-57
2021/10/29 00:35:04;;;;;;;30.17;17.95;;;;;;;7.21;nan;101665.19;5068247;28;20035;-56
2021/10/29 00:37:31;;;;;;;32.47;18.77;;;;;;;7.19;nan;101664.56;5085380;28;20034;-57
2021/10/29 00:39:56;;;;;;;27.30;17.58;;;;;;;7.20;nan;101652.88;5083599;28;20031;-57
2021/10/29 00:42:22;;;;;;;28.10;17.80;;;;;;;7.19;nan;101652.06;5086097;28;20028;-56
2021/10/29 00:44:47;;;;;;;33.03;18.58;;;;;;;7.18;nan;101660.22;5087489;28;20043;-56
2021/10/29 00:47:13;;;;;;;31.17;18.80;;;;;;;7.18;nan;101655.75;5085225;28;20034;-57
2021/10/29 00:49:39;;;;;;;32.13;16.95;;;;;;;7.14;nan;101659.00;5084258;28;20570;-57
2021/10/29 00:52:04;;;;;;;32.80;18.80;;;;;;;7.11;nan;101643.41;5085915;28;20055;-55
2021/10/29 00:54:30;;;;;;;31.83;18.58;;;;;;;7.06;nan;101648.53;5084906;28;20028;-55
2021/10/29 00:56:56;;;;;;;33.33;18.73;;;;;;;7.07;nan;101644.84;5086884;28;20020;-57
2021/10/29 00:59:21;;;;;;;28.52;17.92;;;;;;;7.07;nan;101645.69;5068913;28;20118;-56
2021/10/29 01:01:48;;;;;;;29.63;18.15;;;;;;;7.03;nan;101644.44;5085319;28;20151;-57
2021/10/29 01:04:16;;;;;;;28.67;17.25;;;;;;;7.04;nan;101643.41;5087447;28;20425;-57
2021/10/29 01:06:44;;;;;;;29.10;17.63;;;;;;;7.06;nan;101648.53;5086375;28;20027;-57
2021/10/29 01:09:12;;;;;;;29.70;17.55;;;;;;;7.06;nan;101656.53;5085689;28;20199;-57
2021/10/29 01:11:42;;;;;;;30.65;18.27;;;;;;;7.01;nan;101649.16;5086349;28;20027;-57
2021/10/29 01:14:07;;;;;;;30.40;17.88;;;;;;;7.01;nan;101646.50;5086706;28;20381;-57
2021/10/29 01:16:33;;;;;;;25.27;16.73;;;;;;;7.00;nan;101646.66;5085073;28;20020;-57
2021/10/29 01:18:58;;;;;;;32.15;18.33;;;;;;;7.01;nan;101640.34;5085583;28;20461;-56
2021/10/29 01:21:24;;;;;;;29.27;18.70;;;;;;;6.90;nan;101641.75;5084709;28;20112;-57
2021/10/29 01:23:50;;;;;;;31.60;18.02;;;;;;;6.97;nan;101635.41;5085398;28;20062;-57
2021/10/29 01:26:16;;;;;;;41.35;17.77;;;;;;;6.93;nan;101634.16;5083277;28;20485;-56
2021/10/29 01:28:43;;;;;;;27.92;18.85;;;;;;;6.96;nan;101635.59;5086692;28;20030;-56
2021/10/29 01:31:09;;;;;;;28.42;17.02;;;;;;;6.94;nan;101629.66;5084451;28;20650;-57
2021/10/29 01:33:35;;;;;;;31.85;17.42;;;;;;;6.90;nan;101636.41;5085385;28;20111;-56
2021/10/29 01:36:00;;;;;;;32.13;18.60;;;;;;;6.83;nan;101636.41;5085702;28;20391;-57
2021/10/29 01:38:37;;;;;;;31.75;19.30;;;;;;;6.80;nan;101634.13;5082610;28;20156;-56
2021/10/29 01:41:03;;;;;;;32.45;18.65;;;;;;;6.79;nan;101621.84;5085305;28;20028;-57
2021/10/29 01:43:29;;;;;;;28.38;18.45;;;;;;;6.83;nan;101622.28;5084729;28;20028;-55
2021/10/29 01:45:55;;;;;;;31.77;19.85;;;;;;;6.81;nan;101627.78;5083455;28;20374;-57
2021/10/29 01:48:23;;;;;;;31.73;17.60;;;;;;;6.77;nan;101621.22;5086624;28;20369;-57
2021/10/29 01:50:49;;;;;;;31.60;17.52;;;;;;;6.71;nan;101616.72;5085212;28;20016;-57
2021/10/29 01:53:15;;;;;;;32.33;18.75;;;;;;;6.73;nan;101613.84;5082584;28;20586;-56
2021/10/29 01:55:41;;;;;;;32.33;18.27;;;;;;;6.72;nan;101610.34;5083560;28;20031;-57
2021/10/29 01:58:06;;;;;;;31.83;19.17;;;;;;;6.64;nan;101616.72;5085283;28;20115;-56
2021/10/29 02:00:32;;;;;;;36.22;21.15;;;;;;;6.60;nan;101612.78;5083585;28;20442;-56
2021/10/29 02:02:57;;;;;;;29.23;18.50;;;;;;;6.61;nan;101610.94;5083671;28;20027;-57
2021/10/29 02:05:23;;;;;;;31.70;18.08;;;;;;;6.58;nan;101606.00;5084916;28;20028;-57
2021/10/29 02:07:48;;;;;;;30.48;18.35;;;;;;;6.53;nan;101605.81;5087611;28;20024;-57
2021/10/29 02:10:14;;;;;;;34.28;19.13;;;;;;;6.48;nan;101610.91;5084512;28;20032;-57
2021/10/29 02:12:40;;;;;;;29.02;18.98;;;;;;;6.43;nan;101603.50;5084306;28;20158;-57
2021/10/29 02:15:07;;;;;;;34.00;19.58;;;;;;;6.38;nan;101595.31;5084837;28;20541;-54
2021/10/29 02:17:32;;;;;;;33.30;19.85;;;;;;;6.38;nan;101591.81;5086456;28;20039;-57
2021/10/29 02:19:58;;;;;;;33.13;19.17;;;;;;;6.41;nan;101594.91;5086920;28;20024;-57
2021/10/29 02:22:24;;;;;;;31.50;18.75;;;;;;;6.37;nan;101596.34;5085447;28;20085;-56
2021/10/29 02:24:50;;;;;;;34.75;19.63;;;;;;;6.35;nan;101603.69;5086390;28;20016;-57
2021/10/29 02:27:15;;;;;;;31.45;18.25;;;;;;;6.28;nan;101594.84;5087725;28;20031;-56
2021/10/29 02:29:41;;;;;;;35.63;19.63;;;;;;;6.24;nan;101593.59;5089079;28;20036;-55
2021/10/29 02:32:07;;;;;;;34.75;19.40;;;;;;;6.22;nan;101601.78;5084667;28;20235;-57
2021/10/29 02:34:33;;;;;;;33.28;19.60;;;;;;;6.17;nan;101595.44;5089124;28;20474;-56
2021/10/29 02:36:58;;;;;;;30.63;19.70;;;;;;;6.13;nan;101596.84;5085397;28;20378;-57
2021/10/29 02:39:24;;;;;;;31.15;19.13;;;;;;;6.05;nan;101587.19;5065764;28;20568;-57
2021/10/29 02:41:49;;;;;;;33.53;18.77;;;;;;;6.07;nan;101590.47;5089497;28;20031;-56
2021/10/29 02:44:15;;;;;;;31.83;18.83;;;;;;;6.03;nan;101592.69;5089871;28;20428;-57
2021/10/29 02:46:40;;;;;;;29.63;18.75;;;;;;;6.01;nan;101599.25;5087047;28;20494;-57
2021/10/29 02:49:06;;;;;;;31.92;19.27;;;;;;;5.97;nan;101604.16;5088178;28;20030;-57
2021/10/29 02:51:32;;;;;;;34.75;20.90;;;;;;;5.90;nan;101597.13;5086342;28;20027;-57
2021/10/29 02:53:59;;;;;;;33.25;20.45;;;;;;;5.83;nan;101599.72;5084051;28;20016;-56
2021/10/29 02:56:25;;;;;;;33.75;20.63;;;;;;;5.82;nan;101600.75;5088581;28;20032;-57
2021/10/29 02:58:50;;;;;;;34.83;21.42;;;;;;;5.86;nan;101599.34;5087714;28;20367;-57
2021/10/29 03:01:16;;;;;;;34.90;20.00;;;;;;;5.83;nan;101596.25;5087629;28;20086;-57
2021/10/29 03:03:41;;;;;;;32.58;19.63;;;;;;;5.75;nan;101606.03;5086321;28;20032;-57
2021/10/29 03:06:07;;;;;;;32.65;19.83;;;;;;;5.73;nan;101589.44;5086853;28;20028;-57
2021/10/29 03:08:33;;;;;;;34.10;20.23;;;;;;;5.72;nan;101587.78;5086699;28;20397;-57
2021/10/29 03:10:58;;;;;;;34.97;20.40;;;;;;;5.70;nan;101584.50;5086896;28;20526;-57
2021/10/29 03:13:25;;;;;;;31.85;20.27;;;;;;;5.70;nan;101584.50;5083484;28;20051;-56
2021/10/29 03:15:51;;;;;;;33.65;20.15;;;;;;;5.70;nan;101589.81;5088418;28;20438;-55
2021/10/29 03:18:18;;;;;;;33.15;21.38;;;;;;;5.66;nan;101593.91;5086187;28;20241;-56
2021/10/29 03:20:45;;;;;;;35.33;22.10;;;;;;;5.66;nan;101587.75;5087524;28;20477;-56
2021/10/29 03:23:13;;;;;;;34.70;21.17;;;;;;;5.64;nan;101590.63;5083486;28;20065;-57
2021/10/29 03:25:39;;;;;;;34.08;20.20;;;;;;;5.60;nan;101588.56;5089014;28;20032;-56
2021/10/29 03:28:05;;;;;;;33.22;21.63;;;;;;;5.59;nan;101590.38;5088749;28;20020;-57
2021/10/29 03:30:31;;;;;;;33.13;19.45;;;;;;;5.57;nan;101596.91;5084898;28;20496;-57
2021/10/29 03:32:57;;;;;;;35.15;21.27;;;;;;;5.56;nan;101597.91;5085280;28;20035;-57
2021/10/29 03:35:23;;;;;;;37.92;21.92;;;;;;;5.53;nan;101591.16;5087523;28;20149;-57
2021/10/29 03:43:42;;;;;;;36.13;20.52;;;;;;;5.48;nan;101588.25;5050678;28;20043;-56
2021/10/29 03:46:19;;;;;;;33.20;21.77;;;;;;;5.46;nan;101593.75;5084747;28;20035;-56
2021/10/29 03:54:06;;;;;;;36.28;21.20;;;;;;;5.34;nan;101583.84;5082095;28;20523;-56
2021/10/29 03:56:41;;;;;;;42.17;23.05;;;;;;;5.31;nan;101587.72;5086303;28;20115;-56
2021/10/29 03:59:07;;;;;;;39.75;23.58;;;;;;;5.30;nan;101590.56;5084878;28;20020;-57
2021/10/29 04:01:33;;;;;;;32.33;20.95;;;;;;;5.30;nan;101595.88;5082156;28;20052;-57
2021/10/29 04:03:59;;;;;;;36.65;21.08;;;;;;;5.35;nan;101588.16;5084105;28;20052;-57
2021/10/29 04:06:24;;;;;;;34.05;23.10;;;;;;;5.34;nan;101583.84;5083184;28;20060;-56
2021/10/29 04:08:50;;;;;;;37.60;22.35;;;;;;;5.31;nan;101590.38;5087551;28;20024;-57
2021/10/29 04:11:21;;;;;;;42.05;22.25;;;;;;;5.30;nan;101585.25;5082650;28;20120;-57
2021/10/29 04:13:47;;;;;;;38.45;21.77;;;;;;;5.31;nan;101581.59;5065436;28;20090;-57
2021/10/29 04:16:12;;;;;;;41.85;23.75;;;;;;;5.27;nan;101591.78;5083023;28;20081;-56
2021/10/29 04:18:39;;;;;;;39.05;23.75;;;;;;;5.26;nan;101584.00;5084510;28;20036;-57
2021/10/29 04:21:04;;;;;;;40.67;23.38;;;;;;;5.21;nan;101584.59;5081648;28;20485;-56
2021/10/29 04:23:30;;;;;;;38.70;23.05;;;;;;;5.24;nan;101586.03;5082306;28;20027;-57
2021/10/29 04:25:56;;;;;;;40.65;22.35;;;;;;;5.22;nan;101588.06;5087406;28;20478;-54
2021/10/29 04:28:22;;;;;;;40.10;23.48;;;;;;;5.23;nan;101585.22;5066774;28;20028;-57
2021/10/29 04:30:48;;;;;;;36.55;22.35;;;;;;;5.23;nan;101589.72;5084996;28;20036;-57
2021/10/29 04:33:14;;;;;;;41.75;23.98;;;;;;;5.20;nan;101584.75;5084592;28;20467;-57
2021/10/29 04:35:43;;;;;;;39.35;23.02;;;;;;;5.23;nan;101585.22;5085277;28;20024;-56
2021/10/29 04:38:12;;;;;;;39.10;23.65;;;;;;;5.18;nan;101579.63;5082936;28;20028;-57
2021/10/29 04:40:39;;;;;;;42.10;24.45;;;;;;;5.18;nan;101584.13;5083675;28;20028;-56
2021/10/29 04:43:06;;;;;;;41.95;23.85;;;;;;;5.13;nan;101576.75;5085228;28;20255;-57
2021/10/29 04:45:32;;;;;;;41.00;24.98;;;;;;;5.14;nan;101578.38;5083210;28;20499;-56
2021/10/29 04:47:58;;;;;;;39.53;24.27;;;;;;;5.15;nan;101580.84;5084882;28;20023;-56
2021/10/29 04:50:24;;;;;;;36.75;22.58;;;;;;;5.12;nan;101577.75;5084619;28;20032;-56
2021/10/29 04:52:50;;;;;;;45.45;24.30;;;;;;;5.11;nan;101574.28;5084753;28;20039;-57
2021/10/29 04:55:15;;;;;;;37.72;22.65;;;;;;;4.99;nan;101578.47;5076522;28;20038;-54
2021/10/29 04:57:41;;;;;;;38.33;22.95;;;;;;;5.00;nan;101574.78;5079158;28;21482;-56
2021/10/29 05:00:08;;;;;;;38.17;22.30;;;;;;;4.95;nan;101571.06;5082686;28;20023;-56
2021/10/29 05:02:34;;;;;;;44.38;24.67;;;;;;;4.95;nan;101581.69;5077122;28;20212;-57
2021/10/29 05:05:03;;;;;;;40.45;23.27;;;;;;;4.89;nan;101580.63;5079833;28;20016;-55
2021/10/29 05:07:29;;;;;;;42.88;24.30;;;;;;;4.89;nan;101583.28;5082986;28;20137;-56
2021/10/29 05:09:54;;;;;;;40.75;23.05;;;;;;;4.90;nan;101578.78;5081266;28;20042;-57
2021/10/29 05:12:20;;;;;;;45.58;25.23;;;;;;;4.88;nan;101586.94;5081800;28;20028;-56
2021/10/29 05:14:45;;;;;;;43.28;24.83;;;;;;;4.88;nan;101581.63;5082534;28;20016;-57
2021/10/29 05:17:11;;;;;;;43.78;25.00;;;;;;;4.84;nan;101590.97;5084909;28;20409;-56
2021/10/29 05:19:37;;;;;;;43.30;23.73;;;;;;;4.81;nan;101586.03;5081238;28;20205;-57
2021/10/29 05:22:03;;;;;;;45.80;25.17;;;;;;;4.65;nan;101584.47;5086121;28;20107;-56
2021/10/29 05:24:28;;;;;;;43.97;24.17;;;;;;;4.67;nan;101579.81;5086082;28;20666;-55
2021/10/29 05:26:54;;;;;;;41.20;24.98;;;;;;;4.62;nan;101579.53;5085758;28;20031;-56
2021/10/29 05:29:19;;;;;;;41.08;23.20;;;;;;;4.59;nan;101576.44;5081407;28;20127;-57
2021/10/29 05:31:45;;;;;;;48.35;24.80;;;;;;;4.46;nan;101569.97;5085231;28;20016;-56
2021/10/29 05:34:11;;;;;;;42.08;25.83;;;;;;;4.41;nan;101575.03;5084568;28;20028;-57
2021/10/29 05:36:36;;;;;;;38.70;22.65;;;;;;;4.36;nan;101571.28;5084639;28;20478;-55
2021/10/29 05:39:04;;;;;;;39.65;24.83;;;;;;;4.39;nan;101569.09;5081448;28;20250;-54
2021/10/29 05:41:30;;;;;;;44.28;25.98;;;;;;;4.39;nan;101577.03;5082099;28;20032;-57
2021/10/29 05:43:56;;;;;;;46.63;26.23;;;;;;;4.35;nan;101574.97;5085460;28;20042;-57
2021/10/29 05:46:27;;;;;;;47.08;26.20;;;;;;;4.35;nan;101575.78;5083349;28;20028;-55
2021/10/29 05:48:53;;;;;;;42.97;24.25;;;;;;;4.34;nan;101566.19;5083057;28;20291;-56
2021/10/29 05:51:19;;;;;;;42.97;26.48;;;;;;;4.34;nan;101568.84;5084687;28;20047;-56
2021/10/29 05:56:14;;;;;;;40.42;24.98;;;;;;;4.31;nan;101574.50;5082869;28;20046;-57
2021/10/29 05:58:39;;;;;;;44.95;24.60;;;;;;;4.33;nan;101580.47;5082527;28;20024;-56
2021/10/29 06:01:04;;;;;;;50.03;26.25;;;;;;;4.32;nan;101576.16;5087079;28;20032;-56
2021/10/29 06:03:30;;;;;;;43.50;26.27;;;;;;;4.24;nan;101579.72;5086565;28;20077;-56
2021/10/29 06:05:55;;;;;;;52.90;27.35;;;;;;;4.25;nan;101576.06;5088435;28;20111;-57
2021/10/29 06:08:22;;;;;;;44.70;25.55;;;;;;;4.27;nan;101580.34;5085705;28;20036;-55
2021/10/29 06:10:47;;;;;;;43.72;25.20;;;;;;;4.25;nan;101586.66;5087979;28;20050;-56
2021/10/29 06:13:13;;;;;;;43.30;25.08;;;;;;;4.23;nan;101588.69;5088163;28;20474;-56
2021/10/29 06:15:43;;;;;;;43.05;25.00;;;;;;;4.14;nan;101583.69;5085792;28;20039;-55
2021/10/29 06:18:09;;;;;;;44.65;25.92;;;;;;;4.16;nan;101584.31;5078963;28;20235;-56
2021/10/29 06:20:35;;;;;;;42.55;25.02;;;;;;;4.18;nan;101579.66;5079861;28;20509;-57
2021/10/29 06:23:05;;;;;;;47.95;25.52;;;;;;;4.19;nan;101576.00;5080406;28;20115;-56
2021/10/29 06:25:40;;;;;;;47.65;26.80;;;;;;;4.16;nan;101592.28;5081716;28;20201;-57
2021/10/29 06:30:40;;;;;;;48.70;27.55;;;;;;;4.10;nan;101593.81;5081426;28;20042;-56
2021/10/29 06:33:07;;;;;;;42.28;24.80;;;;;;;4.16;nan;101597.59;5081231;28;20145;-55
2021/10/29 06:35:33;;;;;;;45.75;26.27;;;;;;;4.11;nan;101602.59;5080288;28;20027;-56
2021/10/29 06:37:59;;;;;;;48.15;26.13;;;;;;;4.24;nan;101603.59;5079814;28;20048;-56
2021/10/29 06:40:27;;;;;;;43.95;26.17;;;;;;;4.37;nan;101608.25;5081919;28;20503;-56
2021/10/29 06:43:00;;;;;;;49.63;27.33;;;;;;;4.47;nan;101611.41;5081712;28;20063;-56
2021/10/29 06:59:16;;;;;;;47.75;27.00;;;;;;;4.99;nan;101615.63;5086787;28;20130;-56
2021/10/29 07:40:04;;;;;;;41.50;23.17;;;;;;;6.89;nan;101611.63;5027063;28;20276;-54
2021/10/29 07:42:44;;;;;;;37.70;23.90;;;;;;;6.99;nan;101613.88;5086469;28;20028;-58
2021/10/29 07:45:12;;;;;;;37.83;22.85;;;;;;;7.11;nan;101614.09;5089284;28;20020;-58
2021/10/29 07:47:41;;;;;;;42.70;23.92;;;;;;;7.19;nan;101613.94;5083584;28;20494;-56
2021/10/29 07:50:10;;;;;;;39.50;23.20;;;;;;;7.30;nan;101615.97;5087065;28;20302;-54
2021/10/29 07:52:37;;;;;;;37.28;22.67;;;;;;;7.41;nan;101618.03;5067202;28;20028;-56
2021/10/29 07:55:05;;;;;;;34.38;21.80;;;;;;;7.45;nan;101629.91;5087506;28;20032;-57
2021/10/29 07:57:31;;;;;;;39.78;22.30;;;;;;;7.57;nan;101633.59;5079454;28;20503;-58
2021/10/29 07:59:57;;;;;;;41.72;21.75;;;;;;;7.73;nan;101631.53;5085066;28;20038;-57
2021/10/29 08:02:24;;;;;;;39.35;23.35;;;;;;;7.74;nan;101627.84;5085488;28;20036;-57
2021/10/29 08:04:50;;;;;;;36.08;22.38;;;;;;;7.95;nan;101624.91;5067662;28;20042;-57
2021/10/29 08:07:16;;;;;;;36.78;22.02;;;;;;;8.03;nan;101634.53;5085885;28;20422;-58
2021/10/29 08:09:45;;;;;;;36.55;22.55;;;;;;;8.16;nan;101629.97;5085683;28;20054;-59
2021/10/29 08:12:12;;;;;;;40.15;22.83;;;;;;;8.17;nan;101623.63;5086230;28;20030;-56
2021/10/29 08:14:38;;;;;;;39.65;23.80;;;;;;;8.25;nan;101625.22;5085641;28;20024;-57
2021/10/29 08:17:04;;;;;;;40.58;25.40;;;;;;;8.26;nan;101626.03;5084086;28;20131;-58
2021/10/29 08:19:31;;;;;;;42.00;26.65;;;;;;;8.33;nan;101624.19;5082374;28;20043;-57
2021/10/29 08:22:01;;;;;;;48.95;27.33;;;;;;;8.31;nan;101623.56;5086275;28;20549;-56
2021/10/29 08:24:27;;;;;;;43.25;26.25;;;;;;;8.39;nan;101626.03;5085356;28;20454;-57
2021/10/29 08:26:53;;;;;;;41.50;25.95;;;;;;;8.42;nan;101637.09;5085695;28;20035;-55
2021/10/29 08:29:20;;;;;;;42.10;26.27;;;;;;;8.50;nan;101632.56;5084761;28;20028;-58
2021/10/29 08:31:47;;;;;;;41.13;23.58;;;;;;;8.55;nan;101636.22;5082453;28;20026;-58
2021/10/29 08:34:13;;;;;;;37.53;23.05;;;;;;;8.71;nan;101642.94;5085927;28;20175;-59
2021/10/29 08:36:40;;;;;;;29.40;17.65;;;;;;;8.60;nan;101643.59;5085701;28;20042;-58
2021/10/29 08:39:07;;;;;;;30.42;19.35;;;;;;;8.67;nan;101647.06;5085533;28;20106;-57
2021/10/29 08:41:35;;;;;;;40.47;19.27;;;;;;;8.59;nan;101633.94;5085434;28;20028;-57
2021/10/29 08:44:01;;;;;;;30.88;19.38;;;;;;;8.71;nan;101635.72;5086308;28;20024;-58
2021/10/29 08:46:30;;;;;;;32.17;18.65;;;;;;;8.74;nan;101637.16;5083145;28;20067;-58
2021/10/29 08:48:58;;;;;;;34.05;19.95;;;;;;;8.87;nan;101633.59;5086149;28;20134;-56
2021/10/29 08:51:23;;;;;;;33.42;21.15;;;;;;;9.04;nan;101629.38;5085221;28;20020;-56
2021/10/29 08:53:52;;;;;;;32.22;19.05;;;;;;;9.13;nan;101628.06;5084077;28;20024;-57
2021/10/29 08:56:18;;;;;;;30.83;19.85;;;;;;;9.34;nan;101633.06;5085956;28;20588;-56
2021/10/29 08:59:10;;;;;;;33.80;20.85;;;;;;;9.49;nan;101631.91;5084530;28;20032;-57
2021/10/29 09:07:16;;;;;;;29.98;18.75;;;;;;;9.58;nan;101625.25;5084657;28;20382;-58
2021/10/29 09:32:33;;;;;;;29.90;17.65;;;;;;;10.20;nan;101616.13;5087617;28;20136;-58
2021/10/29 09:35:06;;;;;;;32.50;18.35;;;;;;;10.19;nan;101616.34;5088002;28;20024;-56
2021/10/29 09:37:36;;;;;;;32.80;19.52;;;;;;;10.35;nan;101604.25;5089067;28;20027;-57
2021/10/29 09:40:13;;;;;;;31.58;18.65;;;;;;;10.33;nan;101599.13;5087662;28;20035;-60
2021/10/29 09:42:40;;;;;;;31.02;19.27;;;;;;;10.45;nan;101605.34;5088718;28;20035;-58
2021/10/29 09:45:16;;;;;;;32.75;19.13;;;;;;;10.74;nan;101598.34;5084957;28;20046;-58
2021/10/29 09:47:47;;;;;;;30.08;18.92;;;;;;;10.79;nan;101600.38;5087886;28;20399;-59
2021/10/29 09:50:24;;;;;;;29.42;19.70;;;;;;;10.91;nan;101590.47;5072295;28;20444;-57
2021/10/29 09:53:07;;;;;;;28.83;18.65;;;;;;;11.26;nan;101593.22;5090078;28;20467;-56
2021/10/29 09:58:18;;;;;;;28.02;18.33;;;;;;;11.54;nan;101597.09;5090294;28;20020;-59
2021/10/29 10:00:45;;;;;;;32.42;19.25;;;;;;;11.49;nan;101597.81;5090480;28;20031;-60
2021/10/29 10:03:13;;;;;;;27.52;17.92;;;;;;;11.48;nan;101593.44;5090279;28;20074;-56
2021/10/29 10:05:39;;;;;;;29.98;18.38;;;;;;;11.36;nan;101588.09;5089008;28;20052;-59
2021/10/29 10:08:06;;;;;;;31.23;18.83;;;;;;;11.62;nan;101602.91;5086085;28;20098;-59
2021/10/29 10:10:33;;;;;;;34.33;19.50;;;;;;;11.59;nan;101602.56;5086613;28;20032;-57
2021/10/29 10:13:00;;;;;;;30.00;18.70;;;;;;;11.69;nan;101595.56;5089871;28;20096;-54
2021/10/29 10:15:27;;;;;;;32.80;20.70;;;;;;;11.84;nan;101596.97;5090053;28;20811;-55
2021/10/29 10:17:53;;;;;;;34.38;20.27;;;;;;;12.11;nan;101592.72;5089914;28;20182;-57
2021/10/29 10:20:19;;;;;;;29.45;18.90;;;;;;;12.38;nan;101590.28;5089594;28;20104;-57
2021/10/29 10:22:49;;;;;;;28.98;18.73;;;;;;;12.55;nan;101583.09;5089563;28;20020;-58
2021/10/29 10:45:43;;;;;;;32.00;17.95;;;;;;;12.83;nan;101582.28;5088186;28;20111;-60
2021/10/29 10:48:20;;;;;;;29.20;19.25;;;;;;;13.18;nan;101581.25;5085722;28;20382;-59
2021/10/29 10:50:48;;;;;;;28.17;17.13;;;;;;;13.26;nan;101581.66;5090760;28;20423;-58
2021/10/29 10:53:41;;;;;;;26.92;18.33;;;;;;;13.55;nan;101582.38;5088672;28;20024;-57
2021/10/29 11:01:38;;;;;;;27.58;18.02;;;;;;;13.94;nan;101579.66;5085205;28;20035;-57
2021/10/29 11:10:10;;;;;;;25.88;17.38;;;;;;;16.35;nan;101574.06;5087148;28;20036;-58
2021/10/29 11:12:42;;;;;;;27.15;16.45;;;;;;;18.50;nan;101568.06;5066596;28;20036;-58
2021/10/29 11:15:11;;;;;;;23.13;16.58;;;;;;;20.20;nan;101567.78;5083234;28;20472;-57
2021/10/29 11:17:52;;;;;;;23.42;15.93;;;;;;;21.13;nan;101562.56;5088608;28;20040;-60
2021/10/29 11:20:40;;;;;;;22.60;16.52;;;;;;;21.35;nan;101560.03;5085311;28;20123;-56
2021/10/29 11:23:16;;;;;;;20.90;15.45;;;;;;;22.27;nan;101563.69;5082309;28;20032;-57
2021/10/29 11:25:52;;;;;;;25.17;15.27;;;;;;;23.33;nan;101556.72;5088462;28;20036;-59
2021/10/29 11:28:26;;;;;;;20.88;15.45;;;;;;;24.35;nan;101555.47;5079620;28;20063;-58
2021/10/29 11:30:57;;;;;;;22.55;16.63;;;;;;;23.88;nan;101548.94;5081452;28;20023;-57
2021/10/29 11:33:23;;;;;;;20.92;14.75;;;;;;;24.74;nan;101539.97;5084224;28;20039;-59
2021/10/29 11:36:07;;;;;;;20.88;14.40;;;;;;;24.52;nan;101540.16;5084706;28;20024;-57
2021/10/29 11:38:36;;;;;;;18.55;14.52;;;;;;;24.47;nan;101540.34;5083937;28;20028;-60
2021/10/29 11:41:05;;;;;;;22.90;15.88;;;;;;;25.36;nan;101538.72;5081155;28;20024;-58
2021/10/29 11:43:32;;;;;;;20.48;15.10;;;;;;;26.08;nan;101530.28;5084554;28;20032;-58
2021/10/29 11:46:04;;;;;;;20.40;15.02;;;;;;;26.31;nan;101524.47;5059666;28;20381;-60
2021/10/29 11:48:30;;;;;;;19.17;14.40;;;;;;;;;;5084517;28;20039;-59
2021/10/29 11:51:07;;;;;;;19.73;15.15;;;;;;;;;;5082741;28;20034;-59
2021/10/29 11:53:35;;;;;;;22.27;14.73;;;;;;;;;;5082666;28;20047;-59
2021/10/29 11:56:10;;;;;;;19.55;14.45;;;;;;;;;;5085248;28;20179;-58
2021/10/29 11:58:45;;;;;;;18.77;14.68;;;;;;;;;;5082474;28;20024;-57
2021/10/29 12:01:27;;;;;;;22.60;14.93;;;;;;;;;;5083501;28;20476;-57
2021/10/29 12:09:22;;;;;;;19.67;15.10;;;;;;;;;;5085749;28;20036;-57
2021/10/29 12:11:53;;;;;;;19.80;14.55;;;;;;;;;;5085945;28;20028;-60
2021/10/29 12:14:19;;;;;;;20.63;15.18;;;;;;;;;;5080718;28;20051;-59
2021/10/29 12:16:45;;;;;;;22.17;15.32;;;;;;;;;;5075107;28;20036;-58
2021/10/29 12:19:13;;;;;;;18.23;13.85;;;;;;;;;;5085303;28;20077;-57
2021/10/29 12:21:45;;;;;;;18.63;14.77;;;;;;;;;;5084627;28;20085;-58
2021/10/29 12:24:15;;;;;;;18.67;14.23;;;;;;;;;;5082476;28;20077;-58
2021/10/29 12:26:41;;;;;;;16.77;14.02;;;;;;;;;;5064488;28;20032;-60
2021/10/29 12:29:15;;;;;;;17.85;14.45;;;;;;;;;;5082189;28;20035;-59
2021/10/29 12:54:20;;;;;;;18.02;14.20;;;;;;;27.26;nan;101417.06;5083050;28;20093;-58
2021/10/29 13:02:24;;;;;;;19.90;15.03;;;;;;;20.75;nan;101414.78;5080237;28;20501;-58
2021/10/29 13:04:54;;;;;;;26.33;16.27;;;;;;;19.77;nan;101405.75;5087648;28;20274;-57
2021/10/29 13:07:28;;;;;;;26.23;16.75;;;;;;;18.81;nan;101410.38;5083413;28;20378;-59
2021/10/29 13:10:14;;;;;;;22.27;16.00;;;;;;;18.26;nan;101415.19;5083270;28;20027;-58
2021/10/29 13:15:19;;;;;;;21.00;16.92;;;;;;;17.50;nan;101424.56;5080230;28;20097;-59
2021/10/29 13:17:58;;;;;;;23.13;16.35;;;;;;;17.07;nan;101409.84;5083147;28;20058;-57
2021/10/29 13:28:40;;;;;;;25.57;16.93;;;;;;;15.94;nan;101414.44;5078719;28;20042;-59
2021/10/29 13:36:43;;;;;;;26.20;16.23;;;;;;;15.56;nan;101404.03;5083946;28;20215;-59
2021/10/29 13:50:34;;;;;;;22.17;16.42;;;;;;;14.92;nan;101397.03;5080728;28;20027;-57
2021/10/29 13:58:52;;;;;;;24.63;17.17;;;;;;;14.67;nan;101416.53;5083999;28;20038;-57
2021/10/29 14:01:09;;;;;;;22.50;16.77;;;;;;;14.55;nan;101418.63;5073853;28;20641;-58
2021/10/29 14:03:56;;;;;;;25.23;17.55;;;;;;;14.39;nan;101414.94;5061004;28;20031;-58
2021/10/29 14:30:33;;;;;;;24.10;17.55;;;;;;;13.73;nan;101413.50;5089552;28;20119;-57
2021/10/29 14:43:10;;;;;;;27.50;17.25;;;;;;;13.41;nan;101406.13;5086400;28;20032;-57
2021/10/29 14:46:25;;;;;;;26.67;18.17;;;;;;;13.29;nan;101411.63;5089074;28;20152;-57
2021/10/29 15:43:48;;;;;;;28.08;19.45;;;;;;;11.05;nan;101363.16;5091571;28;20467;-54
2021/10/29 15:46:37;;;;;;;34.85;21.85;;;;;;;10.85;nan;101368.88;5086983;28;20478;-56
2021/10/29 15:51:49;;;;;;;37.50;23.73;;;;;;;10.29;nan;101373.78;5087236;28;20094;-53
2021/10/29 15:54:15;;;;;;;31.88;21.05;;;;;;;10.08;nan;101376.97;5087119;28;20028;-55
2021/10/29 15:56:45;;;;;;;35.08;21.30;;;;;;;9.88;nan;101371.91;5085443;28;20028;-56
2021/10/29 16:17:46;;;;;;;29.77;19.75;;;;;;;9.43;nan;101365.31;5085558;28;20046;-56
2021/10/29 16:20:11;;;;;;;29.17;19.00;;;;;;;9.33;nan;101366.63;5085997;28;20398;-56
2021/10/29 16:22:37;;;;;;;33.15;21.15;;;;;;;9.19;nan;101354.50;5083137;28;20028;-55
2021/10/29 16:25:07;;;;;;;31.08;19.73;;;;;;;8.85;nan;101349.75;5084683;28;20023;-56
2021/10/29 16:27:47;;;;;;;28.45;19.98;;;;;;;8.63;nan;101350.16;5084743;28;20355;-57
2021/10/29 16:30:14;;;;;;;36.00;24.13;;;;;;;8.46;nan;101355.25;5081328;28;20027;-56
2021/10/29 16:32:52;;;;;;;32.25;20.85;;;;;;;8.33;nan;101358.00;5081292;28;20021;-55
2021/10/29 16:35:19;;;;;;;33.38;21.75;;;;;;;8.26;nan;101362.59;5084875;28;20049;-56
2021/10/29 16:37:46;;;;;;;35.25;21.27;;;;;;;8.19;nan;101364.47;5085577;28;20027;-56
2021/10/29 16:40:13;;;;;;;31.83;20.50;;;;;;;7.98;nan;101362.16;5058680;28;20059;-55
2021/10/29 16:42:40;;;;;;;33.70;21.00;;;;;;;7.82;nan;101360.81;5086829;28;20024;-55
2021/10/29 16:45:07;;;;;;;36.03;22.85;;;;;;;7.78;nan;101355.09;5085608;28;20187;-53
2021/10/29 16:47:33;;;;;;;36.50;21.95;;;;;;;7.92;nan;101363.03;5083495;28;20028;-55
2021/10/29 16:49:58;;;;;;;33.95;21.73;;;;;;;7.82;nan;101363.50;5083239;28;20655;-55
2021/10/29 16:52:26;;;;;;;35.35;21.70;;;;;;;7.72;nan;101352.47;5085410;28;20078;-56